sensor_id;sensor_type;location;lat;lon;timestamp;P1;durP1;ratioP1;P2;durP2;ratioP2
7985;SDS011;4038;42.612;23.066;2023-02-19T00:01:17;62.23;;;50.47;;
7985;SDS011;4038;42.612;23.066;2023-02-19T00:03:47;52.93;;;44.80;;
7985;SDS011;4038;42.612;23.066;2023-02-19T00:06:16;58.53;;;45.50;;
7985;SDS011;4038;42.612;23.066;2023-02-19T00:08:42;41.83;;;35.77;;
7985;SDS011;4038;42.612;23.066;2023-02-19T00:11:09;39.93;;;34.63;;
7985;SDS011;4038;42.612;23.066;2023-02-19T00:13:37;38.67;;;34.47;;
7985;SDS011;4038;42.612;23.066;2023-02-19T00:16:08;39.63;;;33.80;;
7985;SDS011;4038;42.612;23.066;2023-02-19T00:18:38;38.13;;;34.20;;
7985;SDS011;4038;42.612;23.066;2023-02-19T00:21:04;43.93;;;37.47;;
7985;SDS011;4038;42.612;23.066;2023-02-19T00:23:30;40.93;;;36.67;;
7985;SDS011;4038;42.612;23.066;2023-02-19T00:25:55;40.57;;;36.17;;
7985;SDS011;4038;42.612;23.066;2023-02-19T00:28:21;42.17;;;37.77;;
7985;SDS011;4038;42.612;23.066;2023-02-19T00:30:47;41.07;;;36.70;;
7985;SDS011;4038;42.612;23.066;2023-02-19T00:33:12;40.83;;;36.73;;
7985;SDS011;4038;42.612;23.066;2023-02-19T00:35:39;42.77;;;37.73;;
7985;SDS011;4038;42.612;23.066;2023-02-19T00:38:04;43.50;;;38.80;;
7985;SDS011;4038;42.612;23.066;2023-02-19T00:40:30;45.57;;;39.60;;
7985;SDS011;4038;42.612;23.066;2023-02-19T00:42:55;48.90;;;40.93;;
7985;SDS011;4038;42.612;23.066;2023-02-19T00:45:21;48.67;;;41.85;;
7985;SDS011;4038;42.612;23.066;2023-02-19T00:47:46;50.67;;;41.73;;
7985;SDS011;4038;42.612;23.066;2023-02-19T00:50:12;44.83;;;40.03;;
7985;SDS011;4038;42.612;23.066;2023-02-19T00:52:37;49.37;;;40.33;;
7985;SDS011;4038;42.612;23.066;2023-02-19T00:55:03;49.07;;;37.03;;
7985;SDS011;4038;42.612;23.066;2023-02-19T00:57:28;49.00;;;38.50;;
7985;SDS011;4038;42.612;23.066;2023-02-19T00:59:54;48.77;;;39.13;;
7985;SDS011;4038;42.612;23.066;2023-02-19T01:02:19;46.73;;;38.03;;
7985;SDS011;4038;42.612;23.066;2023-02-19T01:04:44;44.50;;;38.77;;
7985;SDS011;4038;42.612;23.066;2023-02-19T01:07:10;42.07;;;37.40;;
7985;SDS011;4038;42.612;23.066;2023-02-19T01:09:35;47.57;;;39.53;;
7985;SDS011;4038;42.612;23.066;2023-02-19T01:12:02;49.87;;;41.40;;
7985;SDS011;4038;42.612;23.066;2023-02-19T01:14:28;46.00;;;39.43;;
7985;SDS011;4038;42.612;23.066;2023-02-19T01:16:54;46.17;;;40.23;;
7985;SDS011;4038;42.612;23.066;2023-02-19T01:19:19;32.63;;;29.00;;
7985;SDS011;4038;42.612;23.066;2023-02-19T01:21:44;42.77;;;38.37;;
7985;SDS011;4038;42.612;23.066;2023-02-19T01:24:10;46.50;;;39.43;;
7985;SDS011;4038;42.612;23.066;2023-02-19T01:26:35;48.47;;;40.50;;
7985;SDS011;4038;42.612;23.066;2023-02-19T01:29:01;52.27;;;43.00;;
7985;SDS011;4038;42.612;23.066;2023-02-19T01:31:27;42.67;;;38.00;;
7985;SDS011;4038;42.612;23.066;2023-02-19T01:33:57;44.03;;;38.43;;
7985;SDS011;4038;42.612;23.066;2023-02-19T01:36:25;48.37;;;40.33;;
7985;SDS011;4038;42.612;23.066;2023-02-19T01:38:51;45.43;;;38.90;;
7985;SDS011;4038;42.612;23.066;2023-02-19T01:41:18;54.07;;;41.80;;
7985;SDS011;4038;42.612;23.066;2023-02-19T01:46:34;43.43;;;38.73;;
7985;SDS011;4038;42.612;23.066;2023-02-19T01:49:02;47.80;;;39.30;;
7985;SDS011;4038;42.612;23.066;2023-02-19T01:51:40;44.63;;;39.93;;
7985;SDS011;4038;42.612;23.066;2023-02-19T01:54:10;56.47;;;41.20;;
7985;SDS011;4038;42.612;23.066;2023-02-19T01:56:39;47.83;;;38.13;;
7985;SDS011;4038;42.612;23.066;2023-02-19T01:59:08;41.60;;;34.90;;
7985;SDS011;4038;42.612;23.066;2023-02-19T02:01:34;39.00;;;34.23;;
7985;SDS011;4038;42.612;23.066;2023-02-19T02:04:02;56.47;;;40.37;;
7985;SDS011;4038;42.612;23.066;2023-02-19T02:06:33;60.07;;;46.17;;
7985;SDS011;4038;42.612;23.066;2023-02-19T02:09:04;55.77;;;43.50;;
7985;SDS011;4038;42.612;23.066;2023-02-19T02:11:49;61.17;;;46.70;;
7985;SDS011;4038;42.612;23.066;2023-02-19T02:14:17;64.53;;;47.50;;
7985;SDS011;4038;42.612;23.066;2023-02-19T02:21:53;54.63;;;40.33;;
7985;SDS011;4038;42.612;23.066;2023-02-19T02:35:36;46.90;;;35.93;;
7985;SDS011;4038;42.612;23.066;2023-02-19T02:38:07;45.33;;;36.43;;
7985;SDS011;4038;42.612;23.066;2023-02-19T02:40:38;42.03;;;34.93;;
7985;SDS011;4038;42.612;23.066;2023-02-19T02:43:07;43.50;;;36.90;;
7985;SDS011;4038;42.612;23.066;2023-02-19T02:45:32;38.80;;;34.50;;
7985;SDS011;4038;42.612;23.066;2023-02-19T02:51:01;35.20;;;31.60;;
7985;SDS011;4038;42.612;23.066;2023-02-19T02:56:39;34.77;;;31.00;;
7985;SDS011;4038;42.612;23.066;2023-02-19T02:59:06;34.20;;;30.80;;
7985;SDS011;4038;42.612;23.066;2023-02-19T03:01:36;34.23;;;31.03;;
7985;SDS011;4038;42.612;23.066;2023-02-19T03:04:32;34.30;;;30.63;;
7985;SDS011;4038;42.612;23.066;2023-02-19T03:07:29;31.60;;;28.63;;
7985;SDS011;4038;42.612;23.066;2023-02-19T03:10:00;33.33;;;30.10;;
7985;SDS011;4038;42.612;23.066;2023-02-19T03:12:28;32.83;;;29.53;;
7985;SDS011;4038;42.612;23.066;2023-02-19T03:15:14;33.57;;;30.07;;
7985;SDS011;4038;42.612;23.066;2023-02-19T03:18:00;32.23;;;29.07;;
7985;SDS011;4038;42.612;23.066;2023-02-19T03:20:47;30.93;;;28.00;;
7985;SDS011;4038;42.612;23.066;2023-02-19T03:23:17;31.10;;;28.00;;
7985;SDS011;4038;42.612;23.066;2023-02-19T03:25:45;31.57;;;28.47;;
7985;SDS011;4038;42.612;23.066;2023-02-19T03:28:31;31.50;;;27.80;;
7985;SDS011;4038;42.612;23.066;2023-02-19T03:31:18;30.67;;;27.67;;
7985;SDS011;4038;42.612;23.066;2023-02-19T03:33:50;35.20;;;31.63;;
7985;SDS011;4038;42.612;23.066;2023-02-19T03:36:18;33.53;;;30.33;;
7985;SDS011;4038;42.612;23.066;2023-02-19T03:39:02;39.20;;;29.10;;
7985;SDS011;4038;42.612;23.066;2023-02-19T03:41:35;33.20;;;29.60;;
7985;SDS011;4038;42.612;23.066;2023-02-19T03:44:07;34.30;;;30.40;;
7985;SDS011;4038;42.612;23.066;2023-02-19T03:49:43;44.13;;;30.50;;
7985;SDS011;4038;42.612;23.066;2023-02-19T04:02:53;40.53;;;31.07;;
7985;SDS011;4038;42.612;23.066;2023-02-19T04:05:28;34.37;;;28.67;;
7985;SDS011;4038;42.612;23.066;2023-02-19T04:07:56;34.20;;;29.90;;
7985;SDS011;4038;42.612;23.066;2023-02-19T04:10:26;33.97;;;30.30;;
7985;SDS011;4038;42.612;23.066;2023-02-19T04:12:55;39.77;;;32.43;;
7985;SDS011;4038;42.612;23.066;2023-02-19T04:15:26;37.77;;;31.93;;
7985;SDS011;4038;42.612;23.066;2023-02-19T04:20:28;43.10;;;36.63;;
7985;SDS011;4038;42.612;23.066;2023-02-19T04:22:58;46.70;;;35.30;;
7985;SDS011;4038;42.612;23.066;2023-02-19T04:25:23;48.40;;;38.40;;
7985;SDS011;4038;42.612;23.066;2023-02-19T04:27:51;43.60;;;35.27;;
7985;SDS011;4038;42.612;23.066;2023-02-19T04:30:16;49.13;;;36.00;;
7985;SDS011;4038;42.612;23.066;2023-02-19T04:32:42;43.40;;;37.70;;
7985;SDS011;4038;42.612;23.066;2023-02-19T04:35:07;42.63;;;34.83;;
7985;SDS011;4038;42.612;23.066;2023-02-19T04:37:33;38.40;;;33.43;;
7985;SDS011;4038;42.612;23.066;2023-02-19T04:39:59;37.47;;;32.43;;
7985;SDS011;4038;42.612;23.066;2023-02-19T04:42:24;37.53;;;32.77;;
7985;SDS011;4038;42.612;23.066;2023-02-19T04:44:49;40.60;;;33.97;;
7985;SDS011;4038;42.612;23.066;2023-02-19T04:47:15;43.83;;;34.43;;
7985;SDS011;4038;42.612;23.066;2023-02-19T04:49:43;34.80;;;31.13;;
7985;SDS011;4038;42.612;23.066;2023-02-19T04:52:09;39.00;;;33.27;;
7985;SDS011;4038;42.612;23.066;2023-02-19T04:54:35;44.93;;;32.97;;
7985;SDS011;4038;42.612;23.066;2023-02-19T04:57:00;46.40;;;36.83;;
7985;SDS011;4038;42.612;23.066;2023-02-19T04:59:26;41.23;;;35.17;;
7985;SDS011;4038;42.612;23.066;2023-02-19T05:01:51;41.83;;;34.73;;
7985;SDS011;4038;42.612;23.066;2023-02-19T05:04:17;38.17;;;33.80;;
7985;SDS011;4038;42.612;23.066;2023-02-19T05:06:42;36.57;;;32.53;;
7985;SDS011;4038;42.612;23.066;2023-02-19T05:09:08;36.50;;;30.90;;
7985;SDS011;4038;42.612;23.066;2023-02-19T05:11:33;35.63;;;32.03;;
7985;SDS011;4038;42.612;23.066;2023-02-19T05:13:59;39.40;;;34.93;;
7985;SDS011;4038;42.612;23.066;2023-02-19T05:16:24;38.83;;;32.80;;
7985;SDS011;4038;42.612;23.066;2023-02-19T05:18:50;41.33;;;31.63;;
7985;SDS011;4038;42.612;23.066;2023-02-19T05:21:15;34.47;;;31.00;;
7985;SDS011;4038;42.612;23.066;2023-02-19T05:23:40;39.90;;;33.90;;
7985;SDS011;4038;42.612;23.066;2023-02-19T05:26:08;35.90;;;31.93;;
7985;SDS011;4038;42.612;23.066;2023-02-19T05:28:36;35.93;;;32.03;;
7985;SDS011;4038;42.612;23.066;2023-02-19T05:31:05;42.53;;;32.67;;
7985;SDS011;4038;42.612;23.066;2023-02-19T05:33:32;36.13;;;32.23;;
7985;SDS011;4038;42.612;23.066;2023-02-19T05:35:58;41.23;;;32.27;;
7985;SDS011;4038;42.612;23.066;2023-02-19T05:38:23;36.43;;;31.50;;
7985;SDS011;4038;42.612;23.066;2023-02-19T05:40:49;34.53;;;30.07;;
7985;SDS011;4038;42.612;23.066;2023-02-19T05:43:15;34.47;;;31.17;;
7985;SDS011;4038;42.612;23.066;2023-02-19T05:45:41;38.13;;;31.30;;
7985;SDS011;4038;42.612;23.066;2023-02-19T05:48:07;36.33;;;31.50;;
7985;SDS011;4038;42.612;23.066;2023-02-19T05:50:33;36.07;;;32.33;;
7985;SDS011;4038;42.612;23.066;2023-02-19T05:53:00;36.87;;;30.97;;
7985;SDS011;4038;42.612;23.066;2023-02-19T05:55:27;38.27;;;32.30;;
7985;SDS011;4038;42.612;23.066;2023-02-19T05:57:54;42.00;;;30.97;;
7985;SDS011;4038;42.612;23.066;2023-02-19T06:00:19;35.30;;;31.70;;
7985;SDS011;4038;42.612;23.066;2023-02-19T06:02:45;32.17;;;29.07;;
7985;SDS011;4038;42.612;23.066;2023-02-19T06:05:11;31.67;;;28.30;;
7985;SDS011;4038;42.612;23.066;2023-02-19T06:07:37;32.57;;;29.47;;
7985;SDS011;4038;42.612;23.066;2023-02-19T06:10:06;34.30;;;30.60;;
7985;SDS011;4038;42.612;23.066;2023-02-19T06:12:32;33.33;;;29.93;;
7985;SDS011;4038;42.612;23.066;2023-02-19T06:14:58;33.17;;;29.47;;
7985;SDS011;4038;42.612;23.066;2023-02-19T06:17:23;34.70;;;31.23;;
7985;SDS011;4038;42.612;23.066;2023-02-19T06:19:49;40.20;;;35.87;;
7985;SDS011;4038;42.612;23.066;2023-02-19T06:22:14;39.93;;;35.20;;
7985;SDS011;4038;42.612;23.066;2023-02-19T06:24:40;41.67;;;35.87;;
7985;SDS011;4038;42.612;23.066;2023-02-19T06:27:06;41.60;;;36.23;;
7985;SDS011;4038;42.612;23.066;2023-02-19T06:29:33;39.77;;;35.50;;
7985;SDS011;4038;42.612;23.066;2023-02-19T06:31:58;40.93;;;36.03;;
7985;SDS011;4038;42.612;23.066;2023-02-19T06:34:24;43.40;;;34.77;;
7985;SDS011;4038;42.612;23.066;2023-02-19T06:36:50;40.27;;;36.00;;
7985;SDS011;4038;42.612;23.066;2023-02-19T06:39:15;43.13;;;37.47;;
7985;SDS011;4038;42.612;23.066;2023-02-19T06:41:40;46.80;;;40.17;;
7985;SDS011;4038;42.612;23.066;2023-02-19T06:44:06;48.13;;;38.40;;
7985;SDS011;4038;42.612;23.066;2023-02-19T06:46:31;46.77;;;41.87;;
7985;SDS011;4038;42.612;23.066;2023-02-19T06:48:58;48.93;;;41.00;;
7985;SDS011;4038;42.612;23.066;2023-02-19T06:51:23;51.00;;;44.13;;
7985;SDS011;4038;42.612;23.066;2023-02-19T06:53:51;51.30;;;42.30;;
7985;SDS011;4038;42.612;23.066;2023-02-19T06:58:59;49.80;;;38.73;;
7985;SDS011;4038;42.612;23.066;2023-02-19T07:01:27;45.80;;;40.30;;
7985;SDS011;4038;42.612;23.066;2023-02-19T07:03:54;45.08;;;40.17;;
7985;SDS011;4038;42.612;23.066;2023-02-19T07:06:23;51.85;;;38.10;;
7985;SDS011;4038;42.612;23.066;2023-02-19T07:08:50;44.95;;;40.20;;
7985;SDS011;4038;42.612;23.066;2023-02-19T07:11:16;48.03;;;42.83;;
7985;SDS011;4038;42.612;23.066;2023-02-19T07:13:44;72.30;;;53.58;;
7985;SDS011;4038;42.612;23.066;2023-02-19T07:16:10;69.07;;;53.72;;
7985;SDS011;4038;42.612;23.066;2023-02-19T07:18:36;66.78;;;51.90;;
7985;SDS011;4038;42.612;23.066;2023-02-19T07:21:03;60.45;;;49.63;;
7985;SDS011;4038;42.612;23.066;2023-02-19T07:23:29;54.85;;;47.13;;
7985;SDS011;4038;42.612;23.066;2023-02-19T07:25:55;52.10;;;45.75;;
7985;SDS011;4038;42.612;23.066;2023-02-19T07:28:20;52.72;;;46.90;;
7985;SDS011;4038;42.612;23.066;2023-02-19T07:30:46;56.60;;;48.83;;
7985;SDS011;4038;42.612;23.066;2023-02-19T07:33:11;55.47;;;48.58;;
7985;SDS011;4038;42.612;23.066;2023-02-19T07:35:36;58.22;;;50.90;;
7985;SDS011;4038;42.612;23.066;2023-02-19T07:38:02;54.60;;;49.00;;
7985;SDS011;4038;42.612;23.066;2023-02-19T07:40:30;62.42;;;52.03;;
7985;SDS011;4038;42.612;23.066;2023-02-19T07:42:57;58.13;;;51.38;;
7985;SDS011;4038;42.612;23.066;2023-02-19T07:45:23;56.75;;;50.70;;
7985;SDS011;4038;42.612;23.066;2023-02-19T07:47:48;59.55;;;53.55;;
7985;SDS011;4038;42.612;23.066;2023-02-19T07:50:14;65.43;;;53.85;;
7985;SDS011;4038;42.612;23.066;2023-02-19T07:52:39;60.97;;;54.05;;
7985;SDS011;4038;42.612;23.066;2023-02-19T07:55:05;58.08;;;51.83;;
7985;SDS011;4038;42.612;23.066;2023-02-19T07:57:31;60.47;;;54.10;;
7985;SDS011;4038;42.612;23.066;2023-02-19T07:59:56;65.93;;;51.88;;
7985;SDS011;4038;42.612;23.066;2023-02-19T08:02:22;56.72;;;49.08;;
7985;SDS011;4038;42.612;23.066;2023-02-19T08:05:07;51.83;;;46.42;;
7985;SDS011;4038;42.612;23.066;2023-02-19T08:07:33;54.60;;;44.08;;
7985;SDS011;4038;42.612;23.066;2023-02-19T08:09:59;49.90;;;44.03;;
7985;SDS011;4038;42.612;23.066;2023-02-19T08:12:43;43.72;;;39.13;;
7985;SDS011;4038;42.612;23.066;2023-02-19T08:15:27;48.42;;;41.55;;
7985;SDS011;4038;42.612;23.066;2023-02-19T08:17:52;49.45;;;39.58;;
7985;SDS011;4038;42.612;23.066;2023-02-19T08:20:18;41.05;;;37.13;;
7985;SDS011;4038;42.612;23.066;2023-02-19T08:22:43;43.17;;;36.25;;
7985;SDS011;4038;42.612;23.066;2023-02-19T08:25:09;42.95;;;38.65;;
7985;SDS011;4038;42.612;23.066;2023-02-19T08:27:34;41.92;;;37.35;;
7985;SDS011;4038;42.612;23.066;2023-02-19T08:29:59;43.45;;;38.15;;
7985;SDS011;4038;42.612;23.066;2023-02-19T08:32:25;45.90;;;38.25;;
7985;SDS011;4038;42.612;23.066;2023-02-19T08:34:50;40.85;;;36.45;;
7985;SDS011;4038;42.612;23.066;2023-02-19T08:37:16;43.83;;;39.55;;
7985;SDS011;4038;42.612;23.066;2023-02-19T08:39:41;47.88;;;42.65;;
7985;SDS011;4038;42.612;23.066;2023-02-19T08:42:07;42.97;;;38.70;;
7985;SDS011;4038;42.612;23.066;2023-02-19T08:44:32;37.08;;;33.33;;
7985;SDS011;4038;42.612;23.066;2023-02-19T08:47:02;35.65;;;32.45;;
7985;SDS011;4038;42.612;23.066;2023-02-19T08:49:28;34.60;;;31.35;;
7985;SDS011;4038;42.612;23.066;2023-02-19T08:51:54;36.47;;;33.22;;
7985;SDS011;4038;42.612;23.066;2023-02-19T08:54:19;36.25;;;32.95;;
7985;SDS011;4038;42.612;23.066;2023-02-19T08:56:45;34.45;;;30.98;;
7985;SDS011;4038;42.612;23.066;2023-02-19T08:59:10;36.00;;;32.45;;
7985;SDS011;4038;42.612;23.066;2023-02-19T09:01:36;28.70;;;26.35;;
7985;SDS011;4038;42.612;23.066;2023-02-19T09:04:01;27.67;;;25.58;;
7985;SDS011;4038;42.612;23.066;2023-02-19T09:06:29;30.40;;;27.70;;
7985;SDS011;4038;42.612;23.066;2023-02-19T09:08:54;24.65;;;22.95;;
7985;SDS011;4038;42.612;23.066;2023-02-19T09:11:20;27.13;;;25.10;;
7985;SDS011;4038;42.612;23.066;2023-02-19T09:13:45;26.83;;;24.73;;
7985;SDS011;4038;42.612;23.066;2023-02-19T09:16:11;26.13;;;24.13;;
7985;SDS011;4038;42.612;23.066;2023-02-19T09:18:36;27.55;;;25.35;;
7985;SDS011;4038;42.612;23.066;2023-02-19T09:21:02;26.90;;;24.80;;
7985;SDS011;4038;42.612;23.066;2023-02-19T09:23:33;27.42;;;25.38;;
7985;SDS011;4038;42.612;23.066;2023-02-19T09:25:59;30.95;;;28.20;;
7985;SDS011;4038;42.612;23.066;2023-02-19T09:28:30;27.77;;;25.45;;
7985;SDS011;4038;42.612;23.066;2023-02-19T09:31:05;28.90;;;26.40;;
7985;SDS011;4038;42.612;23.066;2023-02-19T09:33:31;25.88;;;23.75;;
7985;SDS011;4038;42.612;23.066;2023-02-19T09:35:58;28.70;;;26.48;;
7985;SDS011;4038;42.612;23.066;2023-02-19T09:38:24;27.55;;;25.45;;
7985;SDS011;4038;42.612;23.066;2023-02-19T09:40:50;27.98;;;25.90;;
7985;SDS011;4038;42.612;23.066;2023-02-19T09:43:17;27.08;;;24.98;;
7985;SDS011;4038;42.612;23.066;2023-02-19T09:45:47;27.08;;;24.85;;
7985;SDS011;4038;42.612;23.066;2023-02-19T09:48:15;28.48;;;26.27;;
7985;SDS011;4038;42.612;23.066;2023-02-19T09:50:43;30.08;;;27.58;;
7985;SDS011;4038;42.612;23.066;2023-02-19T09:53:15;28.52;;;26.42;;
7985;SDS011;4038;42.612;23.066;2023-02-19T09:55:49;26.77;;;24.67;;
7985;SDS011;4038;42.612;23.066;2023-02-19T10:00:51;27.65;;;25.63;;
7985;SDS011;4038;42.612;23.066;2023-02-19T10:03:28;26.42;;;24.33;;
7985;SDS011;4038;42.612;23.066;2023-02-19T10:06:00;27.83;;;25.48;;
7985;SDS011;4038;42.612;23.066;2023-02-19T10:08:31;26.10;;;23.88;;
7985;SDS011;4038;42.612;23.066;2023-02-19T10:11:01;27.70;;;25.27;;
7985;SDS011;4038;42.612;23.066;2023-02-19T10:16:00;26.70;;;24.70;;
7985;SDS011;4038;42.612;23.066;2023-02-19T10:18:27;24.70;;;22.60;;
7985;SDS011;4038;42.612;23.066;2023-02-19T10:20:56;27.13;;;24.98;;
7985;SDS011;4038;42.612;23.066;2023-02-19T10:23:22;25.98;;;23.98;;
7985;SDS011;4038;42.612;23.066;2023-02-19T10:25:52;25.58;;;23.48;;
7985;SDS011;4038;42.612;23.066;2023-02-19T10:28:22;23.80;;;21.92;;
7985;SDS011;4038;42.612;23.066;2023-02-19T10:30:52;24.10;;;22.20;;
7985;SDS011;4038;42.612;23.066;2023-02-19T10:33:19;25.05;;;23.13;;
7985;SDS011;4038;42.612;23.066;2023-02-19T10:35:52;24.45;;;22.52;;
7985;SDS011;4038;42.612;23.066;2023-02-19T10:38:22;24.00;;;22.30;;
7985;SDS011;4038;42.612;23.066;2023-02-19T10:40:51;23.55;;;21.77;;
7985;SDS011;4038;42.612;23.066;2023-02-19T10:43:28;25.95;;;23.90;;
7985;SDS011;4038;42.612;23.066;2023-02-19T10:46:03;25.50;;;23.67;;
7985;SDS011;4038;42.612;23.066;2023-02-19T10:48:39;26.30;;;24.05;;
7985;SDS011;4038;42.612;23.066;2023-02-19T10:51:10;315.25;;;63.83;;
7985;SDS011;4038;42.612;23.066;2023-02-19T10:53:45;33.63;;;27.52;;
7985;SDS011;4038;42.612;23.066;2023-02-19T10:58:41;26.95;;;24.63;;
7985;SDS011;4038;42.612;23.066;2023-02-19T11:01:10;24.17;;;22.48;;
7985;SDS011;4038;42.612;23.066;2023-02-19T11:03:40;25.38;;;23.23;;
7985;SDS011;4038;42.612;23.066;2023-02-19T11:06:07;24.90;;;23.08;;
7985;SDS011;4038;42.612;23.066;2023-02-19T11:08:45;26.92;;;25.13;;
7985;SDS011;4038;42.612;23.066;2023-02-19T11:11:34;25.83;;;23.85;;
7985;SDS011;4038;42.612;23.066;2023-02-19T11:14:01;25.23;;;23.42;;
7985;SDS011;4038;42.612;23.066;2023-02-19T11:16:43;26.02;;;24.02;;
7985;SDS011;4038;42.612;23.066;2023-02-19T11:19:20;27.83;;;25.25;;
7985;SDS011;4038;42.612;23.066;2023-02-19T11:21:46;25.80;;;24.00;;
7985;SDS011;4038;42.612;23.066;2023-02-19T11:24:20;25.38;;;23.27;;
7985;SDS011;4038;42.612;23.066;2023-02-19T11:26:50;24.77;;;23.08;;
7985;SDS011;4038;42.612;23.066;2023-02-19T11:29:19;25.55;;;23.65;;
7985;SDS011;4038;42.612;23.066;2023-02-19T11:31:47;25.30;;;23.48;;
7985;SDS011;4038;42.612;23.066;2023-02-19T11:36:38;24.88;;;23.08;;
7985;SDS011;4038;42.612;23.066;2023-02-19T11:44:22;25.60;;;23.80;;
7985;SDS011;4038;42.612;23.066;2023-02-19T11:52:33;27.10;;;25.27;;
7985;SDS011;4038;42.612;23.066;2023-02-19T11:58:23;25.40;;;23.60;;
7985;SDS011;4038;42.612;23.066;2023-02-19T12:00:54;25.27;;;23.58;;
7985;SDS011;4038;42.612;23.066;2023-02-19T12:03:40;26.38;;;24.48;;
7985;SDS011;4038;42.612;23.066;2023-02-19T12:08:58;30.77;;;28.25;;
7985;SDS011;4038;42.612;23.066;2023-02-19T12:19:50;26.40;;;24.35;;
7985;SDS011;4038;42.612;23.066;2023-02-19T12:22:31;26.00;;;24.20;;
7985;SDS011;4038;42.612;23.066;2023-02-19T12:39:16;27.48;;;25.48;;
7985;SDS011;4038;42.612;23.066;2023-02-19T12:41:43;27.88;;;25.50;;
7985;SDS011;4038;42.612;23.066;2023-02-19T12:44:14;26.98;;;24.67;;
7985;SDS011;4038;42.612;23.066;2023-02-19T12:46:57;25.30;;;23.50;;
7985;SDS011;4038;42.612;23.066;2023-02-19T12:49:29;26.05;;;24.25;;
7985;SDS011;4038;42.612;23.066;2023-02-19T12:52:05;25.77;;;23.88;;
7985;SDS011;4038;42.612;23.066;2023-02-19T12:54:42;25.35;;;23.55;;
7985;SDS011;4038;42.612;23.066;2023-02-19T12:57:17;25.20;;;23.40;;
7985;SDS011;4038;42.612;23.066;2023-02-19T12:59:52;25.38;;;23.35;;
7985;SDS011;4038;42.612;23.066;2023-02-19T13:02:29;25.52;;;23.73;;
7985;SDS011;4038;42.612;23.066;2023-02-19T13:05:05;25.85;;;24.02;;
7985;SDS011;4038;42.612;23.066;2023-02-19T13:10:34;24.73;;;22.92;;
7985;SDS011;4038;42.612;23.066;2023-02-19T13:13:06;24.85;;;23.05;;
7985;SDS011;4038;42.612;23.066;2023-02-19T13:15:40;24.85;;;23.00;;
7985;SDS011;4038;42.612;23.066;2023-02-19T13:18:15;26.27;;;24.38;;
7985;SDS011;4038;42.612;23.066;2023-02-19T13:20:55;26.30;;;24.27;;
7985;SDS011;4038;42.612;23.066;2023-02-19T13:23:23;24.05;;;22.35;;
7985;SDS011;4038;42.612;23.066;2023-02-19T13:29:26;26.17;;;24.05;;
7985;SDS011;4038;42.612;23.066;2023-02-19T13:37:32;29.65;;;27.35;;
7985;SDS011;4038;42.612;23.066;2023-02-19T13:40:00;26.88;;;24.98;;
7985;SDS011;4038;42.612;23.066;2023-02-19T13:42:31;26.90;;;25.00;;
7985;SDS011;4038;42.612;23.066;2023-02-19T13:44:58;28.08;;;25.77;;
7985;SDS011;4038;42.612;23.066;2023-02-19T13:50:25;29.27;;;26.92;;
7985;SDS011;4038;42.612;23.066;2023-02-19T13:52:53;29.25;;;27.15;;
7985;SDS011;4038;42.612;23.066;2023-02-19T14:01:10;31.15;;;28.73;;
7985;SDS011;4038;42.612;23.066;2023-02-19T14:06:03;28.48;;;26.52;;
7985;SDS011;4038;42.612;23.066;2023-02-19T14:30:59;25.00;;;23.25;;
7985;SDS011;4038;42.612;23.066;2023-02-19T14:33:34;25.90;;;24.10;;
7985;SDS011;4038;42.612;23.066;2023-02-19T14:36:05;26.83;;;24.55;;
7985;SDS011;4038;42.612;23.066;2023-02-19T14:39:00;26.73;;;24.83;;
7985;SDS011;4038;42.612;23.066;2023-02-19T14:41:35;26.58;;;24.67;;
7985;SDS011;4038;42.612;23.066;2023-02-19T14:44:02;26.85;;;24.95;;
7985;SDS011;4038;42.612;23.066;2023-02-19T14:46:36;25.80;;;23.90;;
7985;SDS011;4038;42.612;23.066;2023-02-19T14:49:06;26.05;;;24.23;;
7985;SDS011;4038;42.612;23.066;2023-02-19T14:51:40;26.80;;;24.95;;
7985;SDS011;4038;42.612;23.066;2023-02-19T14:54:12;28.30;;;26.30;;
7985;SDS011;4038;42.612;23.066;2023-02-19T14:56:42;26.05;;;24.17;;
7985;SDS011;4038;42.612;23.066;2023-02-19T15:01:57;25.77;;;23.88;;
7985;SDS011;4038;42.612;23.066;2023-02-19T15:04:33;26.52;;;24.63;;
7985;SDS011;4038;42.612;23.066;2023-02-19T15:07:01;26.02;;;24.00;;
7985;SDS011;4038;42.612;23.066;2023-02-19T15:09:36;24.08;;;22.17;;
7985;SDS011;4038;42.612;23.066;2023-02-19T15:12:06;27.52;;;25.15;;
7985;SDS011;4038;42.612;23.066;2023-02-19T15:14:31;25.70;;;23.80;;
7985;SDS011;4038;42.612;23.066;2023-02-19T15:17:02;26.02;;;24.15;;
7985;SDS011;4038;42.612;23.066;2023-02-19T15:19:31;25.02;;;23.23;;
7985;SDS011;4038;42.612;23.066;2023-02-19T15:22:03;43.22;;;38.75;;
7985;SDS011;4038;42.612;23.066;2023-02-19T15:24:29;30.23;;;27.75;;
7985;SDS011;4038;42.612;23.066;2023-02-19T15:26:54;26.40;;;24.52;;
7985;SDS011;4038;42.612;23.066;2023-02-19T15:29:21;27.52;;;25.13;;
7985;SDS011;4038;42.612;23.066;2023-02-19T15:31:52;27.30;;;25.27;;
7985;SDS011;4038;42.612;23.066;2023-02-19T15:34:24;28.45;;;26.25;;
7985;SDS011;4038;42.612;23.066;2023-02-19T15:36:50;29.67;;;27.17;;
7985;SDS011;4038;42.612;23.066;2023-02-19T15:39:23;24.92;;;23.13;;
7985;SDS011;4038;42.612;23.066;2023-02-19T15:41:52;24.73;;;22.92;;
7985;SDS011;4038;42.612;23.066;2023-02-19T15:47:26;24.95;;;23.15;;
7985;SDS011;4038;42.612;23.066;2023-02-19T16:00:58;25.20;;;23.25;;
7985;SDS011;4038;42.612;23.066;2023-02-19T16:03:27;24.60;;;22.88;;
7985;SDS011;4038;42.612;23.066;2023-02-19T16:08:39;24.10;;;22.08;;
7985;SDS011;4038;42.612;23.066;2023-02-19T16:11:23;25.33;;;23.42;;
7985;SDS011;4038;42.612;23.066;2023-02-19T16:13:52;25.40;;;23.70;;
7985;SDS011;4038;42.612;23.066;2023-02-19T16:16:37;27.92;;;25.58;;
7985;SDS011;4038;42.612;23.066;2023-02-19T16:19:06;27.50;;;25.17;;
7985;SDS011;4038;42.612;23.066;2023-02-19T16:21:32;28.50;;;26.10;;
7985;SDS011;4038;42.612;23.066;2023-02-19T16:24:00;25.65;;;23.70;;
7985;SDS011;4038;42.612;23.066;2023-02-19T16:26:38;26.55;;;24.67;;
7985;SDS011;4038;42.612;23.066;2023-02-19T16:29:04;26.40;;;24.40;;
7985;SDS011;4038;42.612;23.066;2023-02-19T16:31:49;26.55;;;24.33;;
7985;SDS011;4038;42.612;23.066;2023-02-19T16:34:32;26.90;;;24.70;;
7985;SDS011;4038;42.612;23.066;2023-02-19T16:45:15;25.42;;;23.13;;
7985;SDS011;4038;42.612;23.066;2023-02-19T16:47:41;26.98;;;24.58;;
7985;SDS011;4038;42.612;23.066;2023-02-19T16:50:21;27.83;;;25.63;;
7985;SDS011;4038;42.612;23.066;2023-02-19T16:55:21;28.55;;;26.10;;
7985;SDS011;4038;42.612;23.066;2023-02-19T16:57:47;27.30;;;25.05;;
7985;SDS011;4038;42.612;23.066;2023-02-19T17:00:24;26.88;;;24.77;;
7985;SDS011;4038;42.612;23.066;2023-02-19T17:02:54;26.67;;;24.77;;
7985;SDS011;4038;42.612;23.066;2023-02-19T17:05:22;25.83;;;24.00;;
7985;SDS011;4038;42.612;23.066;2023-02-19T17:07:56;25.63;;;23.55;;
7985;SDS011;4038;42.612;23.066;2023-02-19T17:10:23;25.73;;;23.58;;
7985;SDS011;4038;42.612;23.066;2023-02-19T17:12:50;25.42;;;23.52;;
7985;SDS011;4038;42.612;23.066;2023-02-19T17:15:17;24.50;;;22.60;;
7985;SDS011;4038;42.612;23.066;2023-02-19T17:17:43;24.25;;;22.45;;
7985;SDS011;4038;42.612;23.066;2023-02-19T17:22:40;25.50;;;23.50;;
7985;SDS011;4038;42.612;23.066;2023-02-19T17:25:06;24.92;;;23.08;;
7985;SDS011;4038;42.612;23.066;2023-02-19T17:27:32;26.27;;;24.08;;
7985;SDS011;4038;42.612;23.066;2023-02-19T17:29:57;25.05;;;23.05;;
7985;SDS011;4038;42.612;23.066;2023-02-19T17:32:23;24.90;;;22.67;;
7985;SDS011;4038;42.612;23.066;2023-02-19T17:34:48;25.98;;;23.85;;
7985;SDS011;4038;42.612;23.066;2023-02-19T17:37:14;27.42;;;25.02;;